Time;durP1;ratioP1;P1;durP2;ratioP2;P2;SDS_P1;SDS_P2;PMS_P1;PMS_P2;Temp;Humidity;BMP_temperature;BMP_pressure;BME280_temperature;BME280_humidity;BME280_pressure;Samples;Min_cycle;Max_cycle;Signal;HPM_P1;HPM_P2
2023/01/24 05:38:24;;;;;;;;;;;;;;;5.78;100.00;101259.25;4973591;28;20021;-89
2023/01/24 05:40:49;;;;;;;;;;;;;;;5.81;100.00;101270.66;4973262;28;20009;-89
2023/01/24 05:43:14;;;;;;;;;;;;;;;5.82;100.00;101272.41;4951261;28;19924;-90
2023/01/24 05:45:39;;;;;;;;;;;;;;;5.95;100.00;101273.28;4974604;28;20024;-89
2023/01/24 05:48:05;;;;;;;;;;;;;;;5.91;100.00;101270.66;4957746;28;19918;-87
2023/01/24 05:50:30;;;;;;;;;;;;;;;5.94;100.00;101276.78;4971959;28;19944;-87
2023/01/24 05:52:56;;;;;;;;;;;;;;;5.93;100.00;101274.16;4957053;28;20025;-85
2023/01/24 05:55:21;;;;;;;;;;;;;;;5.96;100.00;101279.41;4974464;28;19925;-85
2023/01/24 05:57:46;;;;;;;;;;;;;;;6.03;100.00;101285.59;4957129;28;19925;-85
2023/01/24 06:00:12;;;;;;;;;;;;;;;6.02;100.00;101291.75;4973192;28;19918;-86
2023/01/24 06:02:37;;;;;;;;;;;;;;;6.07;100.00;101287.34;4957152;28;20440;-86
2023/01/24 06:05:02;;;;;;;;;;;;;;;6.06;100.00;101286.44;4957213;28;19965;-85
2023/01/24 06:07:28;;;;;;;;;;;;;;;6.11;100.00;101289.09;4972101;28;19972;-83
2023/01/24 06:09:53;;;;;;;;;;;;;;;6.10;100.00;101298.75;4956848;28;20287;-85
2023/01/24 06:12:18;;;;;;;;;;;;;;;6.19;100.00;101289.97;4974376;28;19974;-84
2023/01/24 06:14:43;;;;;;;;;;;;;;;6.20;100.00;101290.84;4974225;28;19918;-86
2023/01/24 06:17:08;;;;;;;;;;;;;;;6.18;100.00;101290.84;4956945;28;19925;-86
2023/01/24 06:19:34;;;;;;;;;;;;;;;6.18;100.00;101291.72;4956826;28;19918;-87
2023/01/24 06:22:09;;;;;;;;;;;;;;;6.24;100.00;101293.47;4955409;28;19922;-90
2023/01/24 06:24:35;;;;;;;;;;;;;;;6.30;100.00;101296.09;4973975;28;19941;-87
2023/01/24 06:27:00;;;;;;;;;;;;;;;6.28;100.00;101295.22;4956745;28;20381;-87
2023/01/24 06:29:26;;;;;;;;;;;;;;;6.26;100.00;101296.09;4956725;28;19965;-86
2023/01/24 06:31:57;;;;;;;;;;;;;;;6.30;100.00;101290.84;4956626;28;19918;-86
2023/01/24 06:34:34;;;;;;;;;;;;;;;6.27;100.00;101301.38;4974072;28;19954;-88
2023/01/24 06:37:09;;;;;;;;;;;;;;;6.31;100.00;101303.09;4975424;28;20365;-87
2023/01/24 06:39:34;;;;;;;;;;;;;;;6.39;100.00;101300.47;4960353;28;20378;-88
2023/01/24 06:42:00;;;;;;;;;;;;;;;6.36;100.00;101296.06;4960359;28;19989;-86
2023/01/24 06:44:25;;;;;;;;;;;;;;;6.14;100.00;101302.25;4976452;28;20293;-86
2023/01/24 06:46:50;;;;;;;;;;;;;;;5.00;100.00;101309.91;4992735;28;20285;-86
2023/01/24 06:49:16;;;;;;;;;;;;;;;4.37;100.00;101310.41;4977738;28;19972;-86
2023/01/24 06:51:41;;;;;;;;;;;;;;;4.12;100.00;101297.13;4959071;28;20289;-86
2023/01/24 06:54:06;;;;;;;;;;;;;;;4.03;100.00;101301.41;4977472;28;19922;-86
2023/01/24 06:56:32;;;;;;;;;;;;;;;3.90;100.00;101300.44;4977541;28;19965;-87
2023/01/24 06:58:57;;;;;;;;;;;;;;;3.75;100.00;101301.16;4959981;28;19922;-86
2023/01/24 07:01:23;;;;;;;;;;;;;;;3.64;100.00;101298.44;4977436;28;19996;-87
2023/01/24 07:03:48;;;;;;;;;;;;;;;3.47;100.00;101294.78;4977164;28;19924;-87
2023/01/24 07:06:13;;;;;;;;;;;;;;;3.38;100.00;101296.44;4976093;28;19972;-87
2023/01/24 07:08:39;;;;;;;;;;;;;;;3.32;100.00;101303.34;4959937;28;19918;-86
2023/01/24 07:11:04;;;;;;;;;;;;;;;3.25;100.00;101295.41;4977200;28;19929;-86
2023/01/24 07:13:29;;;;;;;;;;;;;;;3.20;100.00;101304.09;4977321;28;20425;-87
2023/01/24 07:15:55;;;;;;;;;;;;;;;3.09;100.00;101311.81;4959792;28;19925;-87
2023/01/24 07:18:20;;;;;;;;;;;;;;;2.99;100.00;101316.06;4975931;28;20292;-87
2023/01/24 07:20:45;;;;;;;;;;;;;;;2.97;100.00;101320.41;4975562;28;20271;-88
2023/01/24 07:23:29;;;;;;;;;;;;;;;2.88;100.00;101315.91;4976991;28;19918;-89
2023/01/24 07:25:55;;;;;;;;;;;;;;;2.85;100.00;101320.25;4977028;28;19918;-88
2023/01/24 07:28:20;;;;;;;;;;;;;;;2.82;100.00;101323.69;4977016;28;19922;-89
2023/01/24 07:30:46;;;;;;;;;;;;;;;2.72;100.00;101332.28;4977130;28;20013;-90
2023/01/24 07:33:13;;;;;;;;;;;;;;;2.69;100.00;101330.50;4975511;28;20021;-89
2023/01/24 07:35:39;;;;;;;;;;;;;;;2.63;100.00;101340.91;4974382;28;19927;-88
2023/01/24 07:38:05;;;;;;;;;;;;;;;2.59;100.00;101340.84;4959195;28;20348;-86
2023/01/24 07:40:30;;;;;;;;;;;;;;;2.60;100.00;101342.56;4976827;28;19922;-86
2023/01/24 07:42:55;;;;;;;;;;;;;;;2.51;100.00;101343.31;4976497;28;20259;-86
2023/01/24 07:45:21;;;;;;;;;;;;;;;2.51;100.00;101338.97;4976792;28;19918;-85
2023/01/24 07:47:46;;;;;;;;;;;;;;;2.44;100.00;101344.97;4976362;28;19914;-84
2023/01/24 08:39:25;;;;;;;;;;;;;;;3.74;100.00;101386.81;5144756;22;20010;-86
2023/01/24 08:41:50;;;;;;;;;;;;;;;3.85;100.00;101372.94;5054420;28;20371;-86
2023/01/24 08:44:16;;;;;;;;;;;;;;;4.00;100.00;101375.69;5036389;28;19917;-87
2023/01/24 08:46:41;;;;;;;;;;;;;;;4.06;100.00;101383.63;5054165;28;19924;-88
2023/01/24 08:49:09;;;;;;;;;;;;;;;4.19;100.00;101390.72;5036379;28;19917;-87
2023/01/24 08:51:45;;;;;;;;;;;;;;;4.29;100.00;101394.34;5054658;28;20348;-92
2023/01/24 08:54:11;;;;;;;;;;;;;;;4.50;100.00;101393.63;5052803;28;20007;-90
2023/01/24 08:56:36;;;;;;;;;;;;;;;4.68;100.00;101392.00;5054108;28;20011;-85
2023/01/24 08:59:01;;;;;;;;;;;;;;;4.61;100.00;101395.44;5053397;28;19963;-85
2023/01/24 09:01:27;;;;;;;;;;;;;;;4.66;100.00;101394.63;5053915;28;20270;-87
2023/01/24 09:03:54;;;;;;;;;;;;;;;4.72;100.00;101394.66;5053888;28;19917;-89
2023/01/24 09:06:20;;;;;;;;;;;;;;;4.79;100.00;101389.47;5053893;28;19917;-87
2023/01/24 09:08:45;;;;;;;;;;;;;;;4.81;100.00;101393.84;5052504;28;20003;-90
2023/01/24 09:11:11;;;;;;;;;;;;;;;5.32;100.00;101395.88;5053827;28;19964;-90
2023/01/24 09:13:36;;;;;;;;;;;;;;;5.53;100.00;101390.69;5053635;28;19917;-88
2023/01/24 09:16:04;;;;;;;;;;;;;;;5.27;100.00;101396.72;5035888;28;19917;-86
2023/01/24 09:18:29;;;;;;;;;;;;;;;5.19;100.00;101393.19;5053888;28;19976;-87
2023/01/24 09:20:54;;;;;;;;;;;;;;;5.18;100.00;101401.94;5053635;28;20527;-86
2023/01/24 09:23:20;;;;;;;;;;;;;;;5.20;100.00;101394.06;5052311;28;19970;-88
2023/01/24 09:25:49;;;;;;;;;;;;;;;5.34;100.00;101404.63;5053552;28;19979;-91
2023/01/24 09:28:14;;;;;;;;;;;;;;;5.38;100.00;101398.53;5053479;28;20007;-87
2023/01/24 09:30:39;;;;;;;;;;;;;;;5.39;100.00;101397.63;5053388;28;20103;-87
2023/01/24 09:33:15;;;;;;;;;;;;;;;5.41;100.00;101395.91;5054478;28;20364;-86
2023/01/24 09:35:40;;;;;;;;;;;;;;;5.50;100.00;101402.94;5035381;28;20265;-86
2023/01/24 09:38:05;;;;;;;;;;;;;;;5.43;100.00;101400.28;5052145;28;19939;-89
2023/01/24 09:40:45;;;;;;;;;;;;;;;5.55;100.00;101412.63;5053083;28;19921;-87
2023/01/24 09:43:15;;;;;;;;;;;;;;;5.53;100.00;101410.84;5053285;28;19924;-84
2023/01/24 09:45:50;;;;;;;;;;;;;;;5.51;100.00;101408.22;5053193;28;19952;-89
2023/01/24 09:48:16;;;;;;;;;;;;;;;5.57;100.00;101408.25;5053295;28;19924;-86
2023/01/24 09:50:46;;;;;;;;;;;;;;;5.61;100.00;101415.25;5035227;28;19917;-85
2023/01/24 09:53:21;;;;;;;;;;;;;;;5.71;100.00;101408.28;5051822;28;19917;-85
2023/01/24 09:55:46;;;;;;;;;;;;;;;5.75;100.00;101409.19;5035307;28;19916;-87
2023/01/24 09:58:18;;;;;;;;;;;;;;;5.72;100.00;101414.44;5053172;28;19963;-85
2023/01/24 10:00:44;;;;;;;;;;;;;;;5.77;100.00;101417.94;5035221;28;20383;-86
2023/01/24 10:03:19;;;;;;;;;;;;;;;5.79;100.00;101418.81;5053082;28;20386;-87
2023/01/24 10:05:49;;;;;;;;;;;;;;;5.76;100.00;101417.06;5052915;28;19917;-92
2023/01/24 10:08:20;;;;;;;;;;;;;;;5.79;100.00;101419.72;5033888;28;19924;-86
2023/01/24 10:10:52;;;;;;;;;;;;;;;5.86;100.00;101415.34;5036324;28;19971;-86
2023/01/24 10:13:38;;;;;;;;;;;;;;;5.91;100.00;101423.25;5057172;28;19924;-86
2023/01/24 10:16:22;;;;;;;;;;;;;;;5.89;100.00;101420.63;5021833;28;20027;-88
2023/01/24 10:18:50;;;;;;;;;;;;;;;5.93;100.00;101417.09;5056951;28;19999;-85
2023/01/24 10:21:24;;;;;;;;;;;;;;;6.02;100.00;101407.53;5057031;28;19917;-87
2023/01/24 10:23:52;;;;;;;;;;;;;;;5.98;100.00;101418.03;5055624;28;19924;-88
2023/01/24 10:26:19;;;;;;;;;;;;;;;6.04;100.00;101413.66;5057055;28;19971;-85
2023/01/24 10:29:07;;;;;;;;;;;;;;;5.98;100.00;101410.16;5056750;28;20485;-86
2023/01/24 10:31:39;;;;;;;;;;;;;;;6.06;100.00;101406.63;5043481;28;20303;-86
2023/01/24 10:34:10;;;;;;;;;;;;;;;6.04;100.00;101406.63;5038960;28;19921;-85
2023/01/24 10:36:44;;;;;;;;;;;;;;;6.09;100.00;101409.28;5056669;28;19917;-84
2023/01/24 10:39:10;;;;;;;;;;;;;;;6.09;100.00;101396.97;5055222;28;20016;-84
2023/01/24 10:41:35;;;;;;;;;;;;;;;6.10;100.00;101404.00;5056615;28;19986;-85
2023/01/24 10:44:10;;;;;;;;;;;;;;;6.16;100.00;101401.41;5038612;28;19923;-84
2023/01/24 10:46:59;;;;;;;;;;;;;;;6.15;100.00;101394.34;5038623;28;19916;-84
2023/01/24 10:49:27;;;;;;;;;;;;;;;6.22;100.00;101394.38;5038383;28;19924;-86
2023/01/24 10:52:13;;;;;;;;;;;;;;;6.23;100.00;101394.38;5038511;28;19966;-84
2023/01/24 10:54:52;;;;;;;;;;;;;;;6.26;100.00;101399.63;5055521;28;19998;-86
2023/01/24 10:57:18;;;;;;;;;;;;;;;6.23;100.00;101394.38;5056430;28;19916;-85
2023/01/24 10:59:43;;;;;;;;;;;;;;;6.32;100.00;101394.38;5055234;28;19925;-85
2023/01/24 11:02:19;;;;;;;;;;;;;;;6.31;100.00;101400.50;5045946;28;19927;-86
2023/01/24 11:04:44;;;;;;;;;;;;;;;6.32;100.00;101399.66;5038130;28;20011;-86
2023/01/24 11:07:23;;;;;;;;;;;;;;;6.24;100.00;101389.97;5055421;28;20405;-85
2023/01/24 11:09:48;;;;;;;;;;;;;;;5.05;100.00;101392.22;5055044;28;19923;-85
2023/01/24 11:12:14;;;;;;;;;;;;;;;4.48;100.00;101390.13;5034101;28;19932;-87
2023/01/24 11:14:39;;;;;;;;;;;;;;;4.24;100.00;101392.53;5035996;28;20011;-87
2023/01/24 11:17:25;;;;;;;;;;;;;;;4.05;100.00;101394.97;5036612;28;19951;-86
2023/01/24 11:19:57;;;;;;;;;;;;;;;3.91;100.00;101400.09;5037143;28;19927;-88
2023/01/24 11:22:24;;;;;;;;;;;;;;;3.77;100.00;101399.09;5030140;28;20269;-86
2023/01/24 11:24:50;;;;;;;;;;;;;;;3.65;100.00;101399.81;5055679;28;20367;-86
2023/01/24 11:27:16;;;;;;;;;;;;;;;3.55;100.00;101395.34;5053520;28;20013;-86
2023/01/24 11:29:42;;;;;;;;;;;;;;;3.44;100.00;101389.97;5034020;28;19956;-86
2023/01/24 11:32:27;;;;;;;;;;;;;;;3.25;100.00;101394.09;5036831;28;19967;-86
2023/01/24 11:34:52;;;;;;;;;;;;;;;3.23;100.00;101393.19;5055701;28;19927;-88
2023/01/24 11:37:20;;;;;;;;;;;;;;;3.14;100.00;101388.69;5031530;28;20011;-85
2023/01/24 11:40:09;;;;;;;;;;;;;;;3.09;100.00;101393.00;5017681;28;19921;-86
2023/01/24 11:42:36;;;;;;;;;;;;;;;2.99;100.00;101394.63;5013984;28;19927;-85
2023/01/24 11:45:11;;;;;;;;;;;;;;;2.95;100.00;101402.41;5037546;28;19917;-85
2023/01/24 11:47:39;;;;;;;;;;;;;;;3.67;100.00;101403.34;5057002;28;19917;-86
2023/01/24 11:50:04;;;;;;;;;;;;;;;3.22;100.00;101399.28;5035771;28;20470;-86
2023/01/24 11:52:29;;;;;;;;;;;;;;;2.97;100.00;101401.59;5047134;28;20039;-85
2023/01/24 11:55:10;;;;;;;;;;;;;;;2.83;100.00;101397.88;5054781;28;19962;-86
2023/01/24 11:57:36;;;;;;;;;;;;;;;2.78;100.00;101391.72;5040793;28;20192;-86
2023/01/24 12:00:13;;;;;;;;;;;;;;;2.73;100.00;101392.50;5035816;28;20003;-86
2023/01/24 12:02:50;;;;;;;;;;;;;;;2.72;100.00;101388.13;5051783;28;20264;-85
2023/01/24 12:05:33;;;;;;;;;;;;;;;2.65;100.00;101394.16;5055172;28;19928;-84
2023/01/24 12:08:09;;;;;;;;;;;;;;;2.56;100.00;101391.38;5053797;28;19917;-86
2023/01/24 12:10:53;;;;;;;;;;;;;;;2.48;100.00;101390.38;5037189;28;19920;-92
2023/01/24 12:13:24;;;;;;;;;;;;;;;2.43;100.00;101386.81;5054172;28;19921;-86
2023/01/24 12:15:52;;;;;;;;;;;;;;;2.44;100.00;101386.84;5037130;28;20398;-85
2023/01/24 12:18:25;;;;;;;;;;;;;;;2.38;100.00;101375.38;5053216;28;19962;-86
2023/01/24 12:20:58;;;;;;;;;;;;;;;2.39;100.00;101377.16;5036355;28;20004;-86
2023/01/24 12:23:27;;;;;;;;;;;;;;;2.40;100.00;101382.41;5028781;28;19925;-83
2023/01/24 12:25:55;;;;;;;;;;;;;;;2.34;100.00;101375.31;5053741;28;19931;-85
2023/01/24 12:28:34;;;;;;;;;;;;;;;2.30;100.00;101370.91;5036773;28;19916;-85
2023/01/24 12:31:08;;;;;;;;;;;;;;;2.29;100.00;101363.91;5034661;28;19935;-87
2023/01/24 12:33:38;;;;;;;;;;;;;;;2.25;100.00;101369.06;5031364;28;20330;-88
2023/01/24 12:36:03;;;;;;;;;;;;;;;2.20;100.00;101371.59;5036530;28;19979;-86
2023/01/24 12:38:36;;;;;;;;;;;;;;;2.31;100.00;101363.94;5051260;28;19912;-88
2023/01/24 12:41:07;;;;;;;;;;;;;;;2.25;100.00;101362.13;5034940;28;19931;-89
2023/01/24 12:43:48;;;;;;;;;;;;;;;2.23;100.00;101365.56;5052463;28;20363;-88
2023/01/24 12:46:25;;;;;;;;;;;;;;;2.12;100.00;101357.53;5054602;28;20047;-88
2023/01/24 12:48:58;;;;;;;;;;;;;;;2.08;100.00;101358.34;5052803;28;19963;-87
2023/01/24 12:51:27;;;;;;;;;;;;;;;2.05;100.00;101366.13;5036561;28;19928;-84
2023/01/24 12:53:55;;;;;;;;;;;;;;;2.09;100.00;101360.09;5035099;28;20279;-89
2023/01/24 12:56:22;;;;;;;;;;;;;;;2.00;100.00;101364.31;5052848;28;19925;-86
2023/01/24 12:58:49;;;;;;;;;;;;;;;2.00;100.00;101368.66;5050860;28;20261;-87
2023/01/24 13:01:23;;;;;;;;;;;;;;;1.99;100.00;101373.03;5026261;28;19925;-86
2023/01/24 13:03:48;;;;;;;;;;;;;;;1.99;100.00;101373.03;5036190;28;19917;-88
2023/01/24 13:06:20;;;;;;;;;;;;;;;2.11;100.00;101371.47;5036119;28;19917;-83
2023/01/24 13:08:55;;;;;;;;;;;;;;;2.59;100.00;101369.63;5034781;28;19942;-87
2023/01/24 13:11:20;;;;;;;;;;;;;;;2.77;100.00;101364.63;5035931;28;20661;-85
2023/01/24 13:13:52;;;;;;;;;;;;;;;3.70;100.00;101361.44;5036318;28;19942;-90
2023/01/24 13:16:38;;;;;;;;;;;;;;;4.16;100.00;101367.13;5036033;28;19917;-90
2023/01/24 13:19:10;;;;;;;;;;;;;;;4.17;100.00;101354.88;5035752;28;20434;-84
2023/01/24 13:21:47;;;;;;;;;;;;;;;4.14;100.00;101358.34;5053886;28;19917;-86
2023/01/24 13:24:18;;;;;;;;;;;;;;;4.49;100.00;101352.47;5035294;28;20009;-81
2023/01/24 13:27:02;;;;;;;;;;;;;;;5.24;100.00;101349.41;5055129;28;19925;-82
2023/01/24 13:29:27;;;;;;;;;;;;;;;5.35;100.00;101351.19;5037672;28;19917;-85
2023/01/24 13:32:06;;;;;;;;;;;;;;;5.13;100.00;101352.88;5035805;28;19981;-85
2023/01/24 13:34:34;;;;;;;;;;;;;;;5.00;100.00;101355.41;5035880;28;19940;-89
2023/01/24 13:37:00;;;;;;;;;;;;;;;4.95;100.00;101353.66;5029863;28;20257;-87
2023/01/24 13:39:31;;;;;;;;;;;;;;;4.96;100.00;101356.25;5034465;28;19928;-82
2023/01/24 13:42:03;;;;;;;;;;;;;;;4.96;100.00;101355.41;5035400;28;19917;-82
2023/01/24 13:44:30;;;;;;;;;;;;;;;5.01;100.00;101354.56;5053172;28;19916;-82
2023/01/24 13:47:08;;;;;;;;;;;;;;;4.99;100.00;101364.16;5035292;28;20264;-84
2023/01/24 13:49:35;;;;;;;;;;;;;;;4.98;100.00;101358.91;5053371;28;20322;-83
2023/01/24 13:52:20;;;;;;;;;;;;;;;5.02;100.00;101350.19;5053184;28;20372;-81
2023/01/24 13:54:45;;;;;;;;;;;;;;;5.06;100.00;101352.81;5051594;28;19917;-81
2023/01/24 13:57:30;;;;;;;;;;;;;;;5.08;100.00;101356.34;5035215;28;19962;-85
2023/01/24 14:00:01;;;;;;;;;;;;;;;5.15;100.00;101351.97;5035228;28;19927;-84
2023/01/24 14:02:28;;;;;;;;;;;;;;;5.26;100.00;101354.66;5053198;28;19920;-82
2023/01/24 14:04:53;;;;;;;;;;;;;;;5.25;100.00;101353.78;5035194;28;20446;-82
2023/01/24 14:07:25;;;;;;;;;;;;;;;5.31;100.00;101359.94;5033836;28;19955;-81
2023/01/24 14:09:56;;;;;;;;;;;;;;;5.37;100.00;101354.72;5053007;28;20390;-81
2023/01/24 14:12:22;;;;;;;;;;;;;;;5.38;100.00;101361.72;5028454;28;20390;-83
2023/01/24 14:15:01;;;;;;;;;;;;;;;5.42;100.00;101360.84;5029154;28;19917;-82
2023/01/24 14:17:43;;;;;;;;;;;;;;;5.38;100.00;101353.84;5053147;28;20361;-83
2023/01/24 14:20:21;;;;;;;;;;;;;;;5.37;100.00;101358.19;5035052;28;20397;-83
2023/01/24 14:22:47;;;;;;;;;;;;;;;5.47;100.00;101353.84;5051631;28;19959;-83
2023/01/24 14:25:24;;;;;;;;;;;;;;;5.49;100.00;101357.38;5053060;28;20053;-82
2023/01/24 14:27:57;;;;;;;;;;;;;;;5.53;100.00;101351.25;5052999;28;19916;-80
2023/01/24 14:30:41;;;;;;;;;;;;;;;5.55;100.00;101354.78;5052914;28;19924;-83
2023/01/24 14:33:22;;;;;;;;;;;;;;;5.63;100.00;101352.13;5034962;28;19917;-82
2023/01/24 14:35:54;;;;;;;;;;;;;;;5.64;100.00;101353.91;5052913;28;19967;-82
2023/01/24 14:38:19;;;;;;;;;;;;;;;5.70;100.00;101355.69;5051453;28;19927;-81
2023/01/24 14:40:48;;;;;;;;;;;;;;;5.71;100.00;101353.06;5035005;28;20008;-86
2023/01/24 14:43:14;;;;;;;;;;;;;;;5.75;100.00;101351.31;5053729;28;19921;-84
2023/01/24 14:45:42;;;;;;;;;;;;;;;5.77;100.00;101362.69;5052840;28;20356;-82
2023/01/24 14:48:09;;;;;;;;;;;;;;;5.79;100.00;101356.59;5052351;28;19923;-84
2023/01/24 14:50:36;;;;;;;;;;;;;;;5.83;100.00;101357.47;5052781;28;20406;-82
2023/01/24 14:53:02;;;;;;;;;;;;;;;5.83;100.00;101360.97;5051220;28;19917;-83
2023/01/24 14:55:32;;;;;;;;;;;;;;;5.86;100.00;101364.50;5052562;28;20395;-82
2023/01/24 14:58:12;;;;;;;;;;;;;;;5.91;100.00;101360.09;5055257;28;19916;-82
2023/01/24 15:00:37;;;;;;;;;;;;;;;5.91;100.00;101355.72;5056337;28;19963;-82
2023/01/24 15:03:04;;;;;;;;;;;;;;;5.94;100.00;101363.59;5038327;28;19972;-81
2023/01/24 15:05:31;;;;;;;;;;;;;;;5.93;100.00;101367.09;5038653;28;19962;-81
2023/01/24 15:07:58;;;;;;;;;;;;;;;5.97;100.00;101366.28;5054853;28;19971;-81
2023/01/24 15:10:24;;;;;;;;;;;;;;;6.00;100.00;101370.69;5055951;28;19916;-81
2023/01/24 15:12:54;;;;;;;;;;;;;;;5.98;100.00;101367.16;5038206;28;19923;-83
2023/01/24 15:15:20;;;;;;;;;;;;;;;6.00;100.00;101361.03;5038036;28;19917;-83
2023/01/24 15:17:47;;;;;;;;;;;;;;;6.03;100.00;101367.16;5038089;28;19923;-82
2023/01/24 15:20:16;;;;;;;;;;;;;;;6.06;100.00;101369.78;5038037;28;20032;-83
2023/01/24 15:22:41;;;;;;;;;;;;;;;6.15;100.00;101372.44;5054502;28;20007;-82
2023/01/24 15:25:20;;;;;;;;;;;;;;;6.13;100.00;101367.16;5037840;28;20011;-82
2023/01/24 15:27:45;;;;;;;;;;;;;;;6.13;100.00;101367.16;5055823;28;19917;-82
2023/01/24 15:30:14;;;;;;;;;;;;;;;6.16;100.00;101375.06;5055649;28;19917;-83
2023/01/24 15:32:40;;;;;;;;;;;;;;;6.20;100.00;101377.72;5055789;28;19952;-82
2023/01/24 15:35:12;;;;;;;;;;;;;;;6.23;100.00;101369.81;5037785;28;19920;-82
2023/01/24 15:37:37;;;;;;;;;;;;;;;6.26;100.00;101378.59;5036238;28;19971;-83
2023/01/24 15:40:02;;;;;;;;;;;;;;;6.26;100.00;101372.44;5031242;28;19925;-83
2023/01/24 15:45:16;;;;;;;;;;;;;;;6.02;100.00;101378.56;5055399;28;20356;-81
2023/01/24 15:47:44;;;;;;;;;;;;;;;5.17;100.00;101384.41;5037668;28;19917;-81
2023/01/24 15:53:20;;;;;;;;;;;;;;;4.50;100.00;101383.13;5054131;28;20051;-83
2023/01/24 15:55:46;;;;;;;;;;;;;;;4.43;100.00;101380.44;5037376;28;19924;-82
2023/01/24 15:58:11;;;;;;;;;;;;;;;4.28;100.00;101386.47;5055061;28;20272;-82
2023/01/24 16:00:37;;;;;;;;;;;;;;;4.21;100.00;101389.88;5037135;28;19921;-82
2023/01/24 16:03:02;;;;;;;;;;;;;;;4.09;100.00;101382.78;5031075;28;19927;-84
2023/01/24 16:05:29;;;;;;;;;;;;;;;4.02;100.00;101384.47;5054941;28;19917;-83
2023/01/24 16:07:54;;;;;;;;;;;;;;;3.95;100.00;101385.28;5035738;28;19943;-83
2023/01/24 16:10:19;;;;;;;;;;;;;;;3.91;100.00;101386.09;5055034;28;19917;-82
2023/01/24 16:12:46;;;;;;;;;;;;;;;3.86;100.00;101385.16;5054944;28;19924;-81
2023/01/24 16:15:15;;;;;;;;;;;;;;;3.76;100.00;101392.06;5036949;28;19939;-84
2023/01/24 16:17:40;;;;;;;;;;;;;;;3.71;100.00;101389.38;5054783;28;19940;-84
2023/01/24 16:20:17;;;;;;;;;;;;;;;3.70;100.00;101386.75;5054817;28;20387;-84
2023/01/24 16:22:43;;;;;;;;;;;;;;;3.62;100.00;101389.28;5053432;28;19917;-83
2023/01/24 16:25:12;;;;;;;;;;;;;;;3.57;100.00;101396.22;5053668;28;20299;-83
2023/01/24 16:27:38;;;;;;;;;;;;;;;3.53;100.00;101392.69;5053505;28;19924;-88
2023/01/24 16:30:04;;;;;;;;;;;;;;;3.51;100.00;101401.38;5051837;28;19924;-84
2023/01/24 16:32:30;;;;;;;;;;;;;;;3.74;100.00;101401.66;5036292;28;19942;-87
2023/01/24 16:34:55;;;;;;;;;;;;;;;3.71;100.00;101404.25;5028083;28;19921;-85
2023/01/24 16:37:21;;;;;;;;;;;;;;;3.57;100.00;101409.31;5036859;28;20386;-84
2023/01/24 16:39:46;;;;;;;;;;;;;;;3.49;100.00;101408.38;5053801;28;20002;-88
2023/01/24 16:42:13;;;;;;;;;;;;;;;3.40;100.00;101415.25;5054460;28;19917;-85
2023/01/24 16:44:38;;;;;;;;;;;;;;;3.35;100.00;101411.69;5053266;28;19920;-87
2023/01/24 16:47:04;;;;;;;;;;;;;;;3.39;100.00;101418.72;5053696;28;20017;-86
2023/01/24 16:49:29;;;;;;;;;;;;;;;3.26;100.00;101406.34;5054570;28;19967;-88
2023/01/24 16:51:54;;;;;;;;;;;;;;;3.27;100.00;101415.94;5055282;28;19916;-92
2023/01/24 16:54:19;;;;;;;;;;;;;;;3.24;100.00;101413.31;5053340;28;19917;-85
2023/01/24 16:56:45;;;;;;;;;;;;;;;3.19;100.00;101410.63;5034712;28;19929;-87
2023/01/24 16:59:10;;;;;;;;;;;;;;;3.20;100.00;101421.97;5034545;28;19960;-87
2023/01/24 17:01:35;;;;;;;;;;;;;;;3.11;100.00;101412.22;5037541;28;19987;-87
2023/01/24 17:04:02;;;;;;;;;;;;;;;3.19;100.00;101418.47;5053679;28;19966;-85
2023/01/24 17:06:29;;;;;;;;;;;;;;;3.11;100.00;101422.72;5035357;28;20231;-87
2023/01/24 17:08:54;;;;;;;;;;;;;;;3.15;100.00;101428.91;5048597;28;20318;-85
2023/01/24 17:11:22;;;;;;;;;;;;;;;3.15;100.00;101428.91;5053825;28;19967;-88
2023/01/24 17:13:47;;;;;;;;;;;;;;;3.15;100.00;101427.16;5052815;28;19916;-88
2023/01/24 17:16:12;;;;;;;;;;;;;;;3.06;100.00;101432.25;5035589;28;19967;-86
2023/01/24 17:18:38;;;;;;;;;;;;;;;3.04;100.00;101426.13;5034674;28;19951;-89
2023/01/24 17:21:05;;;;;;;;;;;;;;;3.00;100.00;101425.22;5048593;28;19924;-90
2023/01/24 17:23:34;;;;;;;;;;;;;;;2.96;100.00;101431.25;5033490;28;20315;-86
2023/01/24 17:26:00;;;;;;;;;;;;;;;2.96;100.00;101439.09;5032281;28;19967;-84
2023/01/24 17:28:25;;;;;;;;;;;;;;;3.04;100.00;101439.22;5035981;28;19925;-95
2023/01/24 17:30:51;;;;;;;;;;;;;;;3.00;100.00;101440.91;5031017;28;19975;-86
2023/01/24 17:33:16;;;;;;;;;;;;;;;2.96;100.00;101440.84;5052328;28;19917;-88
2023/01/24 17:35:41;;;;;;;;;;;;;;;2.96;100.00;101440.84;5031933;28;19932;-93
2023/01/24 17:38:06;;;;;;;;;;;;;;;2.94;100.00;101440.81;5034022;28;20317;-84
2023/01/24 17:40:32;;;;;;;;;;;;;;;2.90;100.00;101439.00;5053440;28;19931;-86
2023/01/24 17:42:57;;;;;;;;;;;;;;;2.92;100.00;101437.31;5052988;28;19942;-90
2023/01/24 17:45:22;;;;;;;;;;;;;;;2.85;100.00;101435.44;5035709;28;20026;-87
2023/01/24 17:47:47;;;;;;;;;;;;;;;3.11;100.00;101443.66;5051538;28;19964;-87
2023/01/24 17:50:13;;;;;;;;;;;;;;;3.19;100.00;101443.78;5053320;28;20411;-87
2023/01/24 17:52:38;;;;;;;;;;;;;;;3.47;100.00;101445.03;5033903;28;19936;-83
2023/01/24 17:55:04;;;;;;;;;;;;;;;3.75;100.00;101438.41;5033772;28;19931;-91
2023/01/24 17:57:30;;;;;;;;;;;;;;;3.94;100.00;101443.81;5035773;28;20413;-84
2023/01/24 17:59:56;;;;;;;;;;;;;;;4.09;100.00;101446.63;5054339;28;19947;-87
2023/01/24 18:02:21;;;;;;;;;;;;;;;4.19;100.00;101443.22;5054058;28;19921;-91
2023/01/24 18:04:46;;;;;;;;;;;;;;;4.30;100.00;101447.69;5033174;28;19924;-93
2023/01/24 18:07:11;;;;;;;;;;;;;;;4.42;100.00;101439.94;5046756;28;19921;-92
2023/01/24 18:09:37;;;;;;;;;;;;;;;4.43;100.00;101439.06;5016949;28;19917;-85
2023/01/24 18:12:02;;;;;;;;;;;;;;;4.52;100.00;101438.28;5029059;28;19986;-82
2023/01/24 18:14:27;;;;;;;;;;;;;;;4.62;100.00;101441.84;5015591;28;19955;-89
2023/01/24 18:16:52;;;;;;;;;;;;;;;4.64;100.00;101448.88;5015799;28;19947;-86
2023/01/24 18:19:18;;;;;;;;;;;;;;;4.71;100.00;101444.56;5025528;28;20319;-88
2023/01/24 18:21:43;;;;;;;;;;;;;;;4.76;100.00;101445.47;5028080;28;19924;-91
2023/01/24 18:24:09;;;;;;;;;;;;;;;4.82;100.00;101449.88;5034280;28;19916;-86
2023/01/24 18:26:37;;;;;;;;;;;;;;;4.89;100.00;101449.91;5028432;28;19980;-85
2023/01/24 18:29:02;;;;;;;;;;;;;;;4.93;100.00;101448.22;5034074;28;19987;-86
2023/01/24 18:31:35;;;;;;;;;;;;;;;4.97;100.00;101452.59;5020256;28;20032;-89
2023/01/24 18:34:00;;;;;;;;;;;;;;;5.00;100.00;101447.38;5023305;28;19917;-84
2023/01/24 18:36:26;;;;;;;;;;;;;;;5.01;100.00;101443.00;5036875;28;20113;-92
2023/01/24 18:38:52;;;;;;;;;;;;;;;5.07;100.00;101446.56;5038124;28;19947;-93
2023/01/24 18:41:17;;;;;;;;;;;;;;;5.11;100.00;101444.81;5039474;28;19920;-92
2023/01/24 18:43:43;;;;;;;;;;;;;;;5.16;100.00;101450.09;5038309;28;19920;-86
2023/01/24 18:46:09;;;;;;;;;;;;;;;5.21;100.00;101451.00;5038999;28;19920;-92
2023/01/24 18:48:36;;;;;;;;;;;;;;;5.25;100.00;101448.41;5037311;28;20016;-89
2023/01/24 18:51:06;;;;;;;;;;;;;;;5.28;100.00;101448.44;5040542;28;20371;-89
2023/01/24 18:53:31;;;;;;;;;;;;;;;5.32;100.00;101448.44;5040453;28;19916;-93
2023/01/24 18:56:01;;;;;;;;;;;;;;;5.33;100.00;101439.66;5038082;28;19943;-90
2023/01/24 18:58:26;;;;;;;;;;;;;;;5.37;100.00;101437.06;5054967;28;19924;-85
2023/01/24 19:00:51;;;;;;;;;;;;;;;5.42;100.00;101439.72;5038410;28;19921;-92
2023/01/24 19:03:16;;;;;;;;;;;;;;;5.44;100.00;101437.97;5033332;28;19999;-91
2023/01/24 19:05:45;;;;;;;;;;;;;;;5.45;100.00;101431.84;5037929;28;19921;-87
2023/01/24 19:08:10;;;;;;;;;;;;;;;5.48;100.00;101428.38;5036665;28;19952;-88
2023/01/24 19:10:35;;;;;;;;;;;;;;;5.49;100.00;101438.91;5038260;28;19916;-90
2023/01/24 19:13:00;;;;;;;;;;;;;;;5.51;100.00;101434.50;5049986;28;19968;-89
2023/01/24 19:15:26;;;;;;;;;;;;;;;5.55;100.00;101441.56;5037050;28;19923;-90